Time;durP1;ratioP1;P1;durP2;ratioP2;P2;SDS_P1;SDS_P2;PMS_P1;PMS_P2;Temp;Humidity;BMP_temperature;BMP_pressure;BME280_temperature;BME280_humidity;BME280_pressure;Samples;Min_cycle;Max_cycle;Signal;HPM_P1;HPM_P2
2022/03/19 00:01:21;;;;;;;18.50;10.90;;;;;;;-1.36;50.65;103318.75;1699748;82;22399;-54
2022/03/19 00:03:47;;;;;;;20.20;9.88;;;;;;;-1.35;50.47;103310.58;1703942;82;21160;-55
2022/03/19 00:06:14;;;;;;;20.00;10.75;;;;;;;-1.36;50.21;103313.59;1703785;83;21874;-54
2022/03/19 00:08:41;;;;;;;20.43;10.85;;;;;;;-1.35;49.95;103310.58;1707181;83;21089;-54
2022/03/19 00:11:09;;;;;;;20.17;12.35;;;;;;;-1.35;49.70;103311.86;1706972;82;21051;-54
2022/03/19 00:13:36;;;;;;;24.57;13.85;;;;;;;-1.37;49.26;103313.12;1702169;83;21547;-54
2022/03/19 00:16:05;;;;;;;26.82;13.98;;;;;;;-1.38;48.66;103312.70;1703380;82;21175;-54
2022/03/19 00:18:34;;;;;;;21.93;13.10;;;;;;;-1.37;48.47;103310.98;1708387;83;21097;-54
2022/03/19 00:21:00;;;;;;;25.12;14.55;;;;;;;-1.37;48.22;103305.81;1702159;83;21086;-54
2022/03/19 00:23:27;;;;;;;21.70;13.83;;;;;;;-1.40;47.87;103301.45;1741511;82;21051;-54
2022/03/19 00:25:54;;;;;;;24.37;13.62;;;;;;;-1.43;47.77;103295.36;1733542;81;21066;-54
2022/03/19 00:28:20;;;;;;;26.75;14.87;;;;;;;-1.48;47.68;103295.28;1737058;80;21151;-54
2022/03/19 00:30:47;;;;;;;25.70;14.47;;;;;;;-1.50;47.62;103295.28;1732353;80;20992;-54
2022/03/19 00:33:14;;;;;;;26.68;15.85;;;;;;;-1.54;47.62;103288.73;1733575;81;21125;-54
2022/03/19 00:35:41;;;;;;;32.73;16.02;;;;;;;-1.57;47.80;103284.81;1738063;81;21133;-54
2022/03/19 00:38:08;;;;;;;29.05;16.17;;;;;;;-1.57;47.56;103288.69;1738733;80;20992;-54
2022/03/19 00:40:35;;;;;;;26.40;15.83;;;;;;;-1.62;47.56;103283.86;1730057;80;21088;-54
2022/03/19 00:43:02;;;;;;;24.30;15.20;;;;;;;-1.64;47.49;103278.67;1738062;82;21046;-54
2022/03/19 00:45:29;;;;;;;31.77;16.70;;;;;;;-1.67;47.48;103279.04;1736443;80;21004;-54
2022/03/19 00:47:57;;;;;;;31.12;15.93;;;;;;;-1.72;47.49;103275.94;1735853;82;21083;-54
2022/03/19 00:50:24;;;;;;;24.57;14.70;;;;;;;-1.77;47.62;103277.57;1732054;81;21427;-54
2022/03/19 00:52:51;;;;;;;26.07;15.32;;;;;;;-1.76;47.76;103280.61;1737385;82;21437;-54
2022/03/19 00:55:18;;;;;;;33.63;17.57;;;;;;;-1.77;48.45;103272.41;1733605;81;21536;-54
2022/03/19 00:57:46;;;;;;;27.73;16.35;;;;;;;-1.79;48.80;103279.70;1735718;82;21037;-54
2022/03/19 01:00:14;;;;;;;25.20;14.83;;;;;;;-1.80;48.95;103274.96;1737085;80;21115;-55
2022/03/19 01:02:43;;;;;;;29.65;16.60;;;;;;;-1.82;49.06;103271.89;1733317;81;21085;-54
2022/03/19 01:05:12;;;;;;;25.77;15.05;;;;;;;-1.84;49.27;103270.56;1736424;80;21151;-54
2022/03/19 01:07:44;;;;;;;24.50;14.43;;;;;;;-1.86;49.45;103268.39;1737901;80;21008;-54
2022/03/19 01:10:14;;;;;;;23.12;14.80;;;;;;;-1.91;49.61;103268.30;1736066;80;21083;-53
2022/03/19 01:12:43;;;;;;;25.95;15.63;;;;;;;-1.96;49.69;103262.61;1734578;82;21055;-54
2022/03/19 01:15:12;;;;;;;24.10;15.03;;;;;;;-1.98;49.69;103264.30;1734247;80;21106;-54
2022/03/19 01:17:40;;;;;;;24.40;15.20;;;;;;;-2.01;49.73;103263.81;1735028;82;21011;-54
2022/03/19 01:20:10;;;;;;;26.97;14.55;;;;;;;-2.03;49.78;103260.73;1736429;82;21044;-54
2022/03/19 01:22:40;;;;;;;25.37;15.13;;;;;;;-2.04;49.91;103262.89;1736663;80;21080;-54
2022/03/19 01:25:08;;;;;;;23.98;15.65;;;;;;;-2.08;50.18;103261.53;1732658;80;21058;-54
2022/03/19 01:27:36;;;;;;;27.95;15.13;;;;;;;-2.08;50.47;103262.83;1733754;81;21126;-54
2022/03/19 01:30:06;;;;;;;24.50;15.32;;;;;;;-2.11;50.49;103258.89;1736431;80;21161;-54
2022/03/19 01:32:33;;;;;;;28.52;16.87;;;;;;;-2.16;50.66;103264.81;1737148;81;21509;-54
2022/03/19 01:35:00;;;;;;;27.93;16.07;;;;;;;-2.18;51.00;103268.66;1738155;80;21550;-54
2022/03/19 01:37:26;;;;;;;32.60;16.42;;;;;;;-2.22;51.17;103265.55;1735762;80;21043;-54
2022/03/19 01:39:55;;;;;;;28.23;15.68;;;;;;;-2.23;51.20;103266.84;1735947;82;21060;-54
2022/03/19 01:42:29;;;;;;;27.82;16.52;;;;;;;-2.27;51.20;103268.45;1733606;81;21167;-55
2022/03/19 01:44:55;;;;;;;28.73;17.02;;;;;;;-2.33;51.21;103267.92;1731668;81;21022;-54
2022/03/19 01:47:23;;;;;;;26.40;16.12;;;;;;;-2.34;51.36;103265.31;1737109;80;21624;-55
2022/03/19 01:49:50;;;;;;;29.57;17.55;;;;;;;-2.35;51.42;103272.62;1733475;82;21037;-55
2022/03/19 01:52:18;;;;;;;28.85;17.23;;;;;;;-2.36;51.51;103270.44;1740618;80;21010;-55
2022/03/19 01:54:48;;;;;;;31.62;17.25;;;;;;;-2.34;51.42;103267.89;1735049;80;21752;-54
2022/03/19 01:57:20;;;;;;;40.10;18.65;;;;;;;-2.34;51.12;103268.75;1735568;80;21015;-54
2022/03/19 01:59:50;;;;;;;34.27;18.67;;;;;;;-2.36;50.99;103268.29;1737129;82;21039;-55
2022/03/19 02:02:16;;;;;;;26.93;16.05;;;;;;;-2.38;50.78;103276.42;1730169;80;21049;-53
2022/03/19 02:04:44;;;;;;;30.45;16.20;;;;;;;-2.37;50.80;103268.72;1741390;80;21573;-52
2022/03/19 02:07:13;;;;;;;31.12;15.15;;;;;;;-2.36;50.95;103270.44;1740816;81;21565;-53
2022/03/19 02:09:41;;;;;;;27.15;15.20;;;;;;;-2.33;51.32;103265.34;1740130;80;21083;-53
2022/03/19 02:12:10;;;;;;;27.35;16.32;;;;;;;-2.29;51.62;103267.13;1732746;80;21067;-53
2022/03/19 02:14:39;;;;;;;25.20;14.10;;;;;;;-2.30;51.83;103265.41;1745880;80;21047;-53
2022/03/19 02:17:07;;;;;;;32.25;15.98;;;;;;;-2.31;52.08;103264.09;1751199;81;21066;-53
2022/03/19 02:19:34;;;;;;;32.90;14.70;;;;;;;-2.32;52.29;103272.66;1754469;80;22145;-54
2022/03/19 02:22:01;;;;;;;24.67;14.20;;;;;;;-2.39;52.61;103267.80;1743370;80;21071;-53
2022/03/19 02:27:15;;;;;;;30.20;17.07;;;;;;;-2.49;53.31;103271.92;1737780;81;21055;-54
2022/03/19 02:29:42;;;;;;;28.27;16.90;;;;;;;-2.55;53.42;103269.20;1741933;80;21080;-54
2022/03/19 02:32:09;;;;;;;26.75;15.95;;;;;;;-2.56;53.43;103267.88;1746364;81;21946;-53
2022/03/19 02:34:38;;;;;;;29.92;16.95;;;;;;;-2.57;53.46;103277.33;1743805;80;21061;-54
2022/03/19 02:37:04;;;;;;;33.25;16.95;;;;;;;-2.59;53.50;103275.11;1745137;81;21121;-54
2022/03/19 02:39:33;;;;;;;28.65;16.90;;;;;;;-2.61;53.66;103283.24;1747267;82;21541;-53
2022/03/19 02:42:05;;;;;;;30.15;17.00;;;;;;;-2.64;53.83;103279.30;1742326;80;21071;-53
2022/03/19 02:44:32;;;;;;;34.38;19.57;;;;;;;-2.64;53.83;103275.44;1746849;82;21864;-54
2022/03/19 02:47:01;;;;;;;28.23;17.70;;;;;;;-2.63;53.91;103275.90;1745929;81;21048;-54
2022/03/19 02:49:29;;;;;;;28.87;18.00;;;;;;;-2.57;53.76;103276.04;1743947;82;21842;-53
2022/03/19 02:51:56;;;;;;;32.45;17.70;;;;;;;-2.54;53.68;103276.50;1741938;81;21004;-54
2022/03/19 02:54:29;;;;;;;29.07;17.02;;;;;;;-2.55;53.63;103287.25;1747878;82;21147;-54
2022/03/19 02:56:59;;;;;;;33.53;19.77;;;;;;;-2.57;53.65;103280.30;1744126;80;21225;-54
2022/03/19 02:59:30;;;;;;;40.10;19.98;;;;;;;-2.58;53.83;103286.31;1745752;81;21116;-54
2022/03/19 03:01:59;;;;;;;34.30;19.00;;;;;;;-2.57;53.60;103279.91;1734032;81;21016;-54
2022/03/19 03:04:26;;;;;;;40.75;21.85;;;;;;;-2.56;52.98;103281.63;1745817;81;21029;-54
2022/03/19 03:06:57;;;;;;;35.73;22.15;;;;;;;-2.59;52.42;103289.30;1737868;82;21100;-54
2022/03/19 03:09:25;;;;;;;38.50;21.50;;;;;;;-2.62;52.04;103281.52;1747721;82;21123;-54
2022/03/19 03:11:52;;;;;;;40.80;22.25;;;;;;;-2.67;51.74;103282.70;1740382;80;21043;-54
2022/03/19 03:14:20;;;;;;;38.53;20.80;;;;;;;-2.72;51.54;103283.42;1746291;80;21031;-54
2022/03/19 03:16:50;;;;;;;35.55;20.40;;;;;;;-2.74;52.02;103283.81;1738496;81;21514;-54
2022/03/19 03:19:17;;;;;;;31.90;20.20;;;;;;;-2.74;52.23;103274.79;1740340;82;21047;-54
2022/03/19 03:21:47;;;;;;;36.83;20.50;;;;;;;-2.71;52.43;103280.02;1738726;81;21053;-54
2022/03/19 03:24:14;;;;;;;33.30;19.15;;;;;;;-2.71;52.60;103291.61;1737497;80;21060;-54
2022/03/19 03:26:42;;;;;;;36.33;20.70;;;;;;;-2.72;52.67;103288.57;1736640;82;21074;-54
2022/03/19 03:29:10;;;;;;;34.92;19.67;;;;;;;-2.75;52.69;103290.68;1740292;81;21106;-54
2022/03/19 03:31:37;;;;;;;34.65;20.68;;;;;;;-2.79;52.84;103292.75;1719734;81;21034;-54
2022/03/19 03:34:05;;;;;;;32.80;19.27;;;;;;;-2.84;52.92;103295.22;1741771;81;21518;-54
2022/03/19 03:36:32;;;;;;;36.17;20.88;;;;;;;-2.82;52.89;103299.12;1730614;81;21089;-54
2022/03/19 03:39:00;;;;;;;32.73;20.00;;;;;;;-2.83;52.81;103305.95;1725445;81;21116;-54
2022/03/19 03:41:28;;;;;;;33.13;20.72;;;;;;;-2.79;52.83;103304.35;1738314;81;21134;-54
2022/03/19 03:43:56;;;;;;;34.48;19.70;;;;;;;-2.79;52.56;103303.06;1741509;82;21925;-54
2022/03/19 03:46:23;;;;;;;35.08;20.30;;;;;;;-2.85;52.49;103305.06;1738536;81;21207;-54
2022/03/19 03:48:50;;;;;;;41.08;20.97;;;;;;;-2.88;52.55;103303.70;1730482;80;21051;-54
2022/03/19 03:51:18;;;;;;;36.25;19.70;;;;;;;-2.91;52.50;103316.50;1733274;80;21111;-54
2022/03/19 03:53:45;;;;;;;37.58;21.07;;;;;;;-2.97;52.84;103310.38;1733422;82;21023;-54
2022/03/19 03:56:12;;;;;;;35.73;21.65;;;;;;;-2.97;53.01;103309.08;1731308;80;21106;-54
2022/03/19 03:58:43;;;;;;;32.90;20.68;;;;;;;-2.97;53.02;103307.37;1738715;80;21258;-54
2022/03/19 04:01:09;;;;;;;39.80;20.72;;;;;;;-3.01;53.00;103311.98;1741934;80;21083;-54
2022/03/19 04:03:38;;;;;;;38.40;21.00;;;;;;;-3.02;53.04;103310.26;1736192;81;21028;-54
2022/03/19 04:06:05;;;;;;;37.93;22.40;;;;;;;-3.04;52.86;103306.78;1738659;80;21608;-54
2022/03/19 04:08:32;;;;;;;39.05;21.48;;;;;;;-3.08;52.92;103310.96;1739766;81;21480;-54
2022/03/19 04:10:59;;;;;;;35.70;21.40;;;;;;;-3.11;53.00;103306.16;1738198;80;21206;-54
2022/03/19 04:13:27;;;;;;;36.23;21.17;;;;;;;-3.10;53.08;103309.20;1737622;81;21006;-53
2022/03/19 04:15:54;;;;;;;43.87;22.65;;;;;;;-3.07;53.16;103309.28;1744044;80;21521;-54
2022/03/19 04:18:21;;;;;;;37.75;23.02;;;;;;;-3.02;53.19;103306.39;1738699;81;21087;-54
2022/03/19 04:20:48;;;;;;;36.25;22.25;;;;;;;-2.99;53.26;103310.33;1738360;82;21586;-54
2022/03/19 04:23:14;;;;;;;46.88;24.10;;;;;;;-3.00;53.29;103305.58;1734868;81;21153;-55
2022/03/19 04:25:42;;;;;;;41.58;24.57;;;;;;;-2.98;53.28;103308.19;1731855;80;21041;-54
2022/03/19 04:28:11;;;;;;;45.00;24.00;;;;;;;-2.98;53.17;103314.63;1733102;80;21060;-54
2022/03/19 04:30:39;;;;;;;43.10;25.02;;;;;;;-3.00;53.64;103314.59;1739267;80;21071;-54
2022/03/19 04:33:07;;;;;;;46.92;27.70;;;;;;;-3.01;53.86;103315.84;1737007;81;21040;-54
2022/03/19 04:38:21;;;;;;;58.45;33.42;;;;;;;-3.05;53.68;103314.05;1662043;84;21070;-54
2022/03/19 04:40:50;;;;;;;63.05;34.40;;;;;;;-3.07;53.13;103305.41;1665569;84;21054;-54
2022/03/19 04:43:17;;;;;;;61.55;33.48;;;;;;;-3.10;52.72;103307.91;1739608;80;20998;-54
2022/03/19 04:45:44;;;;;;;58.80;34.50;;;;;;;-3.05;52.68;103312.75;1737806;82;21090;-54
2022/03/19 04:48:12;;;;;;;70.28;38.23;;;;;;;-2.99;52.82;103307.76;1735806;80;21146;-54
2022/03/19 04:50:43;;;;;;;65.45;37.05;;;;;;;-2.95;52.82;103317.28;1734732;80;21019;-54
2022/03/19 04:53:10;;;;;;;73.83;36.73;;;;;;;-2.91;52.96;103324.23;1735982;80;21027;-56
2022/03/19 04:55:38;;;;;;;70.10;37.73;;;;;;;-2.86;53.12;103319.20;1742544;80;21044;-53
2022/03/19 04:58:08;;;;;;;71.35;42.50;;;;;;;-2.83;53.08;103314.12;1718655;81;21083;-53
2022/03/19 05:00:36;;;;;;;74.37;42.70;;;;;;;-2.78;52.93;103315.52;1734794;80;21046;-53
2022/03/19 05:03:06;;;;;;;86.02;46.53;;;;;;;-2.73;52.73;103314.77;1724425;81;21043;-54
2022/03/19 05:05:34;;;;;;;94.40;49.55;;;;;;;-2.68;52.60;103325.20;1731102;80;20999;-54
2022/03/19 05:08:01;;;;;;;90.10;49.42;;;;;;;-2.64;52.32;103316.69;1729556;81;21097;-54
2022/03/19 05:13:13;;;;;;;90.45;54.25;;;;;;;-2.57;52.14;103325.03;1739462;81;21158;-54
2022/03/19 05:15:40;;;;;;;91.10;53.25;;;;;;;-2.50;52.07;103325.60;1737705;80;21062;-54
2022/03/19 05:18:08;;;;;;;89.15;51.15;;;;;;;-2.41;52.19;103333.09;1740852;80;22328;-55
2022/03/19 05:20:36;;;;;;;98.30;51.65;;;;;;;-2.31;52.26;103342.33;1748691;80;21076;-55
2022/03/19 05:23:07;;;;;;;98.07;52.98;;;;;;;-2.22;52.03;103336.48;1744926;81;21094;-55
2022/03/19 05:25:36;;;;;;;115.45;56.18;;;;;;;-2.15;51.86;103338.37;1743770;82;21118;-55
2022/03/19 05:28:03;;;;;;;111.88;58.95;;;;;;;-2.11;51.41;103338.87;1745389;80;21582;-53
2022/03/19 05:30:32;;;;;;;98.47;55.28;;;;;;;-2.03;51.33;103336.46;1734952;80;21027;-54
2022/03/19 05:33:00;;;;;;;103.07;57.80;;;;;;;-1.93;51.28;103334.51;1740141;80;21449;-54
2022/03/19 05:35:28;;;;;;;115.82;61.83;;;;;;;-1.83;51.22;103340.72;1741799;81;21059;-54
2022/03/19 05:37:59;;;;;;;146.00;68.25;;;;;;;-1.72;50.98;103345.64;1743621;80;21172;-54
2022/03/19 05:40:26;;;;;;;125.55;71.82;;;;;;;-1.60;50.75;103340.27;1749693;80;21019;-54
2022/03/19 05:42:54;;;;;;;134.05;73.80;;;;;;;-1.48;50.72;103344.78;1744447;80;21111;-53
2022/03/19 05:45:22;;;;;;;162.47;83.05;;;;;;;-1.32;50.72;103346.37;1749605;81;21043;-54
2022/03/19 05:47:49;;;;;;;189.40;91.00;;;;;;;-1.14;50.22;103347.54;1738781;81;21062;-55
2022/03/19 05:50:18;;;;;;;166.15;85.85;;;;;;;-0.98;49.53;103344.77;1741434;81;21227;-53
2022/03/19 05:52:46;;;;;;;160.20;84.40;;;;;;;-0.84;49.08;103346.26;1735014;80;21070;-54
2022/03/19 05:55:13;;;;;;;166.85;86.35;;;;;;;-0.72;48.36;103343.88;1743571;80;21008;-53
2022/03/19 05:57:42;;;;;;;179.00;93.70;;;;;;;-0.63;48.21;103345.72;1741679;81;21904;-54
2022/03/19 06:00:11;;;;;;;184.50;93.47;;;;;;;-0.49;47.84;103349.34;1750704;82;20976;-55
2022/03/19 06:02:41;;;;;;;201.42;100.25;;;;;;;-0.37;47.71;103346.06;1744895;81;21085;-55
2022/03/19 06:05:09;;;;;;;191.45;101.75;;;;;;;-0.27;47.51;103350.53;1741408;80;21507;-55
2022/03/19 06:07:37;;;;;;;195.07;98.72;;;;;;;-0.19;46.64;103354.06;1732437;80;20991;-55
2022/03/19 06:10:06;;;;;;;193.17;94.40;;;;;;;-0.12;45.54;103352.42;1737450;82;20972;-54
2022/03/19 06:12:34;;;;;;;185.63;93.20;;;;;;;-0.05;45.53;103352.06;1721883;81;21056;-55
2022/03/19 06:15:01;;;;;;;183.05;89.85;;;;;;;-0.01;44.76;103347.39;1747613;80;21214;-54
2022/03/19 06:17:29;;;;;;;192.30;89.90;;;;;;;0.04;44.77;103354.78;1733098;80;21032;-54
2022/03/19 06:19:56;;;;;;;167.25;88.22;;;;;;;0.10;43.86;103352.67;1730449;80;21565;-54
2022/03/19 06:22:24;;;;;;;161.07;88.80;;;;;;;0.11;43.89;103348.81;1726594;80;21067;-54
2022/03/19 06:24:50;;;;;;;179.40;89.47;;;;;;;0.13;44.06;103353.58;1736723;82;21071;-54
2022/03/19 06:27:17;;;;;;;185.35;87.82;;;;;;;0.12;43.56;103354.45;1730693;80;22270;-54
2022/03/19 06:29:43;;;;;;;198.45;92.85;;;;;;;0.12;43.87;103356.18;1734325;81;21110;-54
2022/03/19 06:32:11;;;;;;;181.57;92.25;;;;;;;0.17;44.24;103358.39;1735351;81;21548;-54
2022/03/19 06:34:37;;;;;;;200.13;97.75;;;;;;;0.22;44.24;103359.72;1740265;82;21079;-54
2022/03/19 06:37:20;;;;;;;186.80;98.78;;;;;;;0.29;43.74;103358.52;1740193;80;21130;-54
2022/03/19 06:39:54;;;;;;;181.18;91.92;;;;;;;0.34;43.30;103358.57;1737287;80;21279;-54
2022/03/19 06:42:20;;;;;;;202.50;97.40;;;;;;;0.40;44.36;103361.20;1734380;81;21106;-54
2022/03/19 06:44:48;;;;;;;187.47;94.55;;;;;;;0.47;44.41;103364.73;1739970;82;21094;-54
2022/03/19 06:47:15;;;;;;;214.75;94.42;;;;;;;0.54;44.41;103363.52;1732975;81;21110;-54
2022/03/19 06:49:41;;;;;;;193.47;97.05;;;;;;;0.65;44.22;103361.45;1739670;82;21056;-54
2022/03/19 06:52:10;;;;;;;201.05;92.10;;;;;;;0.71;44.08;103355.90;1739088;80;21145;-54
2022/03/19 06:54:36;;;;;;;172.28;85.72;;;;;;;0.85;42.73;103359.04;1739813;82;21003;-54
2022/03/19 06:57:04;;;;;;;148.38;76.00;;;;;;;0.85;42.73;103359.04;1734434;82;21024;-54
2022/03/19 06:59:31;;;;;;;177.45;85.35;;;;;;;0.89;42.42;103362.98;1733299;80;21099;-54
2022/03/19 07:01:59;;;;;;;174.15;85.17;;;;;;;0.96;42.69;103365.59;1727836;80;22238;-54
2022/03/19 07:04:26;;;;;;;154.97;77.85;;;;;;;1.05;43.08;103365.69;1738081;81;21205;-54
2022/03/19 07:06:53;;;;;;;171.40;80.72;;;;;;;1.12;42.64;103372.65;1741331;82;21079;-54
2022/03/19 07:09:20;;;;;;;162.50;79.62;;;;;;;1.18;42.28;103369.22;1739394;81;21174;-54
2022/03/19 07:11:47;;;;;;;151.95;84.65;;;;;;;1.25;41.67;103371.87;1738042;80;21047;-54
2022/03/19 07:14:14;;;;;;;157.62;82.70;;;;;;;1.37;41.50;103370.23;1735323;81;21576;-54
2022/03/19 07:16:44;;;;;;;177.07;86.30;;;;;;;1.44;40.73;103369.41;1744722;80;21083;-54
2022/03/19 07:19:12;;;;;;;156.07;81.85;;;;;;;1.51;40.38;103362.09;1741470;81;21070;-54
2022/03/19 07:21:39;;;;;;;165.18;82.75;;;;;;;1.52;39.63;103359.08;1746597;81;21034;-54
2022/03/19 07:24:07;;;;;;;184.87;80.95;;;;;;;1.59;39.53;103364.73;1749897;80;21094;-54
2022/03/19 07:26:33;;;;;;;146.10;75.83;;;;;;;1.61;39.66;103359.97;1748794;81;21111;-54
2022/03/19 07:29:01;;;;;;;161.60;76.50;;;;;;;1.68;39.82;103355.69;1750521;81;21213;-54
2022/03/19 07:43:06;;;;;;;158.87;79.27;;;;;;;3.37;35.80;103345.09;1862532;75;22593;-53
2022/03/19 07:45:37;;;;;;;138.80;71.25;;;;;;;3.47;35.52;103350.26;1842516;77;20976;-53
2022/03/19 07:48:05;;;;;;;132.52;67.70;;;;;;;3.35;34.70;103352.45;1839448;75;20989;-54
2022/03/19 07:50:32;;;;;;;143.25;67.08;;;;;;;3.26;35.63;103351.19;1842015;75;21707;-54
2022/03/19 07:52:58;;;;;;;127.53;62.25;;;;;;;3.15;35.37;103358.14;1842988;77;21018;-56
2022/03/19 07:55:25;;;;;;;141.40;68.22;;;;;;;3.01;35.50;103356.86;1851584;75;21042;-54
2022/03/19 07:57:52;;;;;;;122.07;62.93;;;;;;;2.93;35.90;103361.19;1835258;76;21053;-54
2022/03/19 08:00:21;;;;;;;106.85;55.05;;;;;;;2.85;36.25;103355.13;1851708;77;21141;-55
2022/03/19 08:02:48;;;;;;;117.40;59.48;;;;;;;2.80;36.36;103355.11;1846427;76;21104;-54
2022/03/19 08:05:15;;;;;;;94.40;49.40;;;;;;;2.77;36.26;103356.00;1840808;75;20969;-54
2022/03/19 08:07:41;;;;;;;101.50;51.08;;;;;;;2.73;36.06;103360.74;1852738;75;21458;-54
2022/03/19 08:10:10;;;;;;;93.82;49.20;;;;;;;2.72;36.05;103359.03;1849079;77;20987;-54
2022/03/19 08:12:40;;;;;;;93.22;44.50;;;;;;;2.73;36.22;103355.55;1850802;75;21014;-54
2022/03/19 08:15:10;;;;;;;77.37;40.55;;;;;;;2.82;36.61;103352.07;1847556;77;21077;-54
2022/03/19 08:17:37;;;;;;;65.40;33.02;;;;;;;2.94;36.21;103347.30;1852532;75;21450;-54
2022/03/19 08:20:10;;;;;;;65.35;31.07;;;;;;;3.07;35.67;103345.13;1850618;77;21077;-54
2022/03/19 08:22:35;;;;;;;49.13;29.87;;;;;;;3.23;34.97;103341.19;1849753;77;21038;-54
2022/03/19 08:25:03;;;;;;;52.85;26.97;;;;;;;3.41;34.63;103341.59;1846635;75;21123;-54
2022/03/19 08:27:30;;;;;;;52.48;26.60;;;;;;;3.52;34.11;103331.58;1847614;75;21546;-54
2022/03/19 08:29:56;;;;;;;43.13;20.55;;;;;;;3.66;33.95;103329.37;1840062;75;21044;-53
2022/03/19 08:32:24;;;;;;;48.52;21.57;;;;;;;3.77;32.39;103335.86;1838413;77;21469;-54
2022/03/19 08:34:51;;;;;;;37.45;17.62;;;;;;;3.83;32.74;103328.88;1843764;75;21106;-54
2022/03/19 08:37:18;;;;;;;33.25;16.82;;;;;;;3.89;31.79;103327.53;1847924;77;21784;-53
2022/03/19 08:42:33;;;;;;;30.95;15.03;;;;;;;3.98;31.67;103329.66;1847924;75;21089;-55
2022/03/19 08:45:00;;;;;;;27.67;14.13;;;;;;;3.98;32.18;103324.01;1845707;75;21093;-54
2022/03/19 08:47:26;;;;;;;26.37;15.03;;;;;;;4.03;31.71;103322.69;1847906;75;21062;-54
2022/03/19 08:49:53;;;;;;;18.80;10.08;;;;;;;4.09;31.15;103327.87;1835581;75;21121;-54
2022/03/19 08:52:20;;;;;;;18.00;10.20;;;;;;;4.14;31.21;103327.41;1849558;77;21022;-55
2022/03/19 08:54:47;;;;;;;18.00;9.85;;;;;;;4.17;31.08;103319.58;1849722;75;21509;-54
2022/03/19 08:57:14;;;;;;;19.52;9.88;;;;;;;4.20;30.70;103329.10;1831779;77;21041;-54
2022/03/19 08:59:41;;;;;;;18.85;9.75;;;;;;;4.26;30.74;103324.72;1837807;77;21101;-55
2022/03/19 09:02:08;;;;;;;20.12;10.28;;;;;;;4.30;30.50;103324.70;1849834;77;21170;-54
2022/03/19 09:04:34;;;;;;;15.93;8.83;;;;;;;4.36;30.55;103329.44;1843124;77;21525;-55
2022/03/19 09:07:02;;;;;;;18.50;9.53;;;;;;;4.38;30.21;103327.68;1809812;77;21039;-54
2022/03/19 09:09:29;;;;;;;17.57;9.83;;;;;;;4.38;30.38;103328.98;1841566;75;21054;-55
2022/03/19 09:11:56;;;;;;;17.73;9.18;;;;;;;4.43;30.34;103325.05;1838898;77;21290;-55
2022/03/19 09:14:24;;;;;;;13.62;8.53;;;;;;;4.48;30.40;103319.36;1850212;77;21112;-54
2022/03/19 09:16:51;;;;;;;14.00;7.42;;;;;;;4.55;30.00;103317.13;1844582;77;21073;-55
2022/03/19 09:19:17;;;;;;;14.93;7.97;;;;;;;4.61;30.11;103322.30;1850460;75;21261;-55
2022/03/19 09:21:44;;;;;;;12.80;6.97;;;;;;;4.70;30.24;103319.20;1849873;77;21121;-54
2022/03/19 09:24:11;;;;;;;10.28;5.58;;;;;;;4.82;29.08;103320.39;1847876;75;21097;-55
2022/03/19 09:26:37;;;;;;;9.40;4.87;;;;;;;4.91;28.80;103322.93;1852381;75;21165;-54
2022/03/19 09:29:06;;;;;;;10.18;5.55;;;;;;;5.01;28.48;103316.74;1849762;75;21049;-54
2022/03/19 09:31:33;;;;;;;14.00;7.10;;;;;;;5.09;27.51;103310.57;1853131;75;21081;-55
2022/03/19 09:33:59;;;;;;;13.78;7.83;;;;;;;5.10;27.85;103315.78;1840328;75;21073;-54
2022/03/19 09:36:26;;;;;;;14.70;6.17;;;;;;;5.10;28.23;103313.62;1840358;75;21093;-52
2022/03/19 09:38:53;;;;;;;19.37;8.48;;;;;;;5.08;28.38;103316.24;1843203;75;21192;-54
2022/03/19 09:41:19;;;;;;;11.95;7.37;;;;;;;5.12;27.85;103310.09;1847648;75;21070;-54
2022/03/19 09:43:46;;;;;;;9.65;6.45;;;;;;;5.16;26.38;103309.62;1848813;75;20980;-55
2022/03/19 09:46:13;;;;;;;13.08;7.25;;;;;;;5.18;27.24;103309.19;1841199;76;21058;-55
2022/03/19 09:48:41;;;;;;;12.50;7.05;;;;;;;5.20;27.00;103311.34;1844160;75;20984;-56
2022/03/19 09:51:13;;;;;;;15.55;8.58;;;;;;;5.27;26.60;103306.46;1847622;75;21038;-55
2022/03/19 09:53:38;;;;;;;13.70;7.42;;;;;;;5.32;26.78;103311.64;1846151;75;21097;-55
2022/03/19 09:56:07;;;;;;;14.05;8.15;;;;;;;5.33;26.99;103306.41;1791108;77;21092;-54
2022/03/19 09:58:34;;;;;;;14.25;7.70;;;;;;;5.39;27.15;103302.40;1829513;77;21041;-55
2022/03/19 10:01:06;;;;;;;14.40;7.75;;;;;;;5.48;26.70;103294.04;1837163;75;21536;-55
2022/03/19 10:03:35;;;;;;;13.50;7.53;;;;;;;5.52;26.63;103299.22;1864619;75;21192;-55
2022/03/19 10:08:58;;;;;;;16.57;7.62;;;;;;;5.56;26.95;103291.78;1841545;77;20958;-52
2022/03/19 10:11:33;;;;;;;13.15;7.33;;;;;;;5.59;26.94;103287.80;1840320;75;21187;-55
2022/03/19 10:14:05;;;;;;;11.83;7.50;;;;;;;5.60;27.28;103284.77;1840340;76;21503;-54
2022/03/19 10:16:35;;;;;;;10.75;7.08;;;;;;;5.61;27.15;103283.01;1816917;77;21123;-55
2022/03/19 10:19:05;;;;;;;14.07;6.75;;;;;;;5.63;26.75;103283.84;1848010;75;21037;-53
2022/03/19 10:21:37;;;;;;;11.83;6.80;;;;;;;5.63;26.86;103276.01;1822873;78;21054;-54
2022/03/19 10:24:07;;;;;;;13.15;7.30;;;;;;;5.59;24.85;103272.58;1841967;75;21030;-55
2022/03/19 10:26:37;;;;;;;11.53;6.30;;;;;;;5.59;24.88;103278.66;1842596;75;21037;-55
2022/03/19 10:29:11;;;;;;;11.40;6.87;;;;;;;5.60;25.07;103278.23;1841331;75;21884;-55
2022/03/19 10:31:46;;;;;;;12.93;6.78;;;;;;;5.65;25.51;103278.16;1843419;75;21513;-55
2022/03/19 10:34:14;;;;;;;11.78;6.67;;;;;;;5.73;25.33;103275.89;1837890;75;21049;-55
2022/03/19 10:36:43;;;;;;;13.95;6.55;;;;;;;5.77;25.44;103277.56;1846582;77;21061;-55
2022/03/19 10:39:19;;;;;;;12.47;7.25;;;;;;;5.87;25.53;103276.14;1851321;75;21077;-55
2022/03/19 10:41:46;;;;;;;12.85;7.17;;;;;;;5.99;25.31;103271.22;1842039;75;21946;-54
2022/03/19 10:44:17;;;;;;;10.45;5.45;;;;;;;6.07;24.50;103269.33;1819557;77;21041;-54
2022/03/19 10:46:58;;;;;;;11.28;6.03;;;;;;;6.07;24.88;103267.59;1818885;77;21101;-54
2022/03/19 10:49:27;;;;;;;13.00;7.05;;;;;;;6.08;25.15;103261.47;1822311;77;21053;-53
2022/03/19 10:51:57;;;;;;;13.95;6.55;;;;;;;6.03;24.17;103267.66;1823772;77;21941;-53
2022/03/19 10:54:24;;;;;;;10.88;6.67;;;;;;;6.04;24.58;103266.33;1819140;77;21202;-52
2022/03/19 10:56:54;;;;;;;13.48;7.03;;;;;;;6.08;24.56;103265.84;1821467;77;20991;-53
2022/03/19 10:59:20;;;;;;;9.18;5.15;;;;;;;6.14;24.38;103261.38;1820613;77;21090;-53
2022/03/19 11:01:51;;;;;;;10.53;5.15;;;;;;;6.17;24.34;103255.68;1826335;77;21057;-53
2022/03/19 11:04:18;;;;;;;11.40;5.58;;;;;;;6.23;24.20;103252.52;1826176;77;21010;-54
2022/03/19 11:06:45;;;;;;;9.48;5.22;;;;;;;6.32;24.51;103251.50;1830181;77;21840;-53
2022/03/19 11:09:16;;;;;;;12.50;5.17;;;;;;;6.45;24.57;103255.65;1817771;77;21004;-53
2022/03/19 11:11:58;;;;;;;10.00;5.12;;;;;;;6.56;23.88;103249.41;1825263;77;21033;-53
2022/03/19 11:14:28;;;;;;;9.53;5.45;;;;;;;6.65;23.80;103238.76;1822592;77;20978;-53
2022/03/19 11:17:23;;;;;;;10.90;5.00;;;;;;;6.75;24.58;103238.16;1823636;78;21057;-53
2022/03/19 11:20:00;;;;;;;10.78;5.53;;;;;;;6.87;24.54;103228.75;1800141;78;21084;-52
2022/03/19 11:22:41;;;;;;;16.62;7.28;;;;;;;7.01;24.07;103234.60;1823511;77;21025;-52
2022/03/19 11:25:16;;;;;;;10.53;6.00;;;;;;;7.03;22.57;103241.13;1817218;77;20961;-53
2022/03/19 11:27:47;;;;;;;8.95;5.03;;;;;;;6.95;22.19;103237.78;1800424;77;21619;-53
2022/03/19 11:30:20;;;;;;;10.05;6.12;;;;;;;6.93;22.51;103239.58;1768096;78;21591;-53
2022/03/19 11:33:15;;;;;;;11.83;5.42;;;;;;;6.95;22.87;103239.95;1805622;78;21737;-53
2022/03/19 11:36:03;;;;;;;10.08;6.30;;;;;;;7.05;22.76;103236.71;1809868;77;21009;-53
2022/03/19 11:38:32;;;;;;;10.88;5.17;;;;;;;7.16;22.71;103226.90;1814309;77;21032;-52
2022/03/19 11:41:00;;;;;;;13.32;5.42;;;;;;;7.29;22.66;103217.01;1820381;77;21096;-51
2022/03/19 11:43:30;;;;;;;9.15;5.22;;;;;;;7.41;22.43;103225.94;1818403;77;21004;-54
2022/03/19 11:46:04;;;;;;;7.37;4.37;;;;;;;7.47;22.52;103226.70;1825514;77;21239;-55